createdAt,value
2024-03-11T00:00:17.090Z,14.27
2024-03-11T00:02:51.343Z,12.13
2024-03-11T00:05:24.375Z,13.60
2024-03-11T00:07:58.479Z,13.27
2024-03-11T00:10:35.521Z,12.77
2024-03-11T00:13:12.215Z,13.33
2024-03-11T00:15:48.770Z,13.87
2024-03-11T00:18:21.973Z,12.83
2024-03-11T00:20:54.918Z,13.93
2024-03-11T00:23:28.673Z,12.67
2024-03-11T00:26:03.778Z,13.93
2024-03-11T00:28:38.364Z,14.13
2024-03-11T00:31:13.269Z,13.37
2024-03-11T00:33:46.525Z,13.33
2024-03-11T00:36:19.752Z,13.23
2024-03-11T00:38:54.335Z,14.03
2024-03-11T00:41:29.290Z,13.40
2024-03-11T00:44:02.618Z,12.77
2024-03-11T00:46:36.854Z,13.97
2024-03-11T00:49:10.973Z,12.60
2024-03-11T00:51:44.048Z,12.97
2024-03-11T00:54:17.284Z,12.57
2024-03-11T00:56:52.321Z,13.57
2024-03-11T00:59:25.763Z,13.30
2024-03-11T01:01:59.551Z,13.70
2024-03-11T01:04:32.778Z,13.87
2024-03-11T01:07:13.287Z,13.10
2024-03-11T01:09:54.105Z,13.60
2024-03-11T01:12:28.818Z,12.67
2024-03-11T01:15:03.100Z,12.47
2024-03-11T01:17:38.668Z,13.83
2024-03-11T01:20:14.876Z,13.40
2024-03-11T01:22:48.950Z,13.13
2024-03-11T01:25:24.288Z,14.07
2024-03-11T01:27:59.095Z,13.70
2024-03-11T01:30:32.293Z,13.47
2024-03-11T01:33:06.561Z,13.50
2024-03-11T01:35:42.434Z,11.73
2024-03-11T01:38:15.623Z,13.27
2024-03-11T01:40:49.004Z,13.40
2024-03-11T01:43:29.080Z,13.90
2024-03-11T01:46:01.847Z,13.70
2024-03-11T01:48:34.600Z,13.17
2024-03-11T01:51:09.522Z,13.10
2024-03-11T01:53:42.400Z,13.43
2024-03-11T01:56:15.327Z,13.13
2024-03-11T01:58:52.235Z,12.83
2024-03-11T02:01:29.384Z,13.40
2024-03-11T02:04:02.249Z,13.30
2024-03-11T02:06:35.132Z,12.60
2024-03-11T02:09:11.179Z,12.40
2024-03-11T02:11:44.809Z,13.93
2024-03-11T02:14:22.211Z,12.20
2024-03-11T02:16:59.858Z,12.93
2024-03-11T02:19:32.790Z,13.30
2024-03-11T02:22:07.344Z,12.27
2024-03-11T02:24:46.185Z,12.30
2024-03-11T02:27:19.472Z,12.50
2024-03-11T02:29:52.164Z,12.57
2024-03-11T02:32:25.213Z,12.53
2024-03-11T02:34:58.141Z,12.37
2024-03-11T02:37:30.938Z,12.37
2024-03-11T02:40:08.253Z,12.17
2024-03-11T02:42:42.008Z,13.00
2024-03-11T02:45:15.670Z,11.93
2024-03-11T02:47:50.730Z,12.80
2024-03-11T02:50:23.763Z,11.93
2024-03-11T02:52:56.631Z,12.20
2024-03-11T02:55:30.666Z,12.70
2024-03-11T02:58:04.613Z,12.17
2024-03-11T03:00:37.536Z,12.37
2024-03-11T03:03:10.356Z,13.17
2024-03-11T03:05:43.248Z,12.83
2024-03-11T03:08:16.937Z,13.50
2024-03-11T03:10:51.039Z,12.10
2024-03-11T03:13:24.050Z,11.73
2024-03-11T03:15:56.768Z,12.37
2024-03-11T03:18:29.424Z,12.37
2024-03-11T03:21:02.083Z,12.67
2024-03-11T03:23:34.927Z,12.77
2024-03-11T03:26:09.769Z,13.07
2024-03-11T03:28:42.642Z,12.87
2024-03-11T03:31:15.741Z,13.27
2024-03-11T03:33:49.616Z,13.07
2024-03-11T03:36:22.866Z,13.07
2024-03-11T03:38:55.486Z,13.37
2024-03-11T03:41:29.520Z,13.50
2024-03-11T03:44:02.375Z,12.70
2024-03-11T03:46:35.117Z,12.90
2024-03-11T03:49:08.604Z,12.53
2024-03-11T03:51:41.469Z,12.83
2024-03-11T03:54:14.336Z,12.87
2024-03-11T03:56:48.587Z,12.63
2024-03-11T03:59:23.336Z,12.60
2024-03-11T04:01:56.248Z,12.37
2024-03-11T04:04:29.172Z,12.80
2024-03-11T04:07:01.935Z,13.07
2024-03-11T04:09:34.575Z,13.20
2024-03-11T04:12:09.138Z,12.83
2024-03-11T04:14:42.121Z,12.90
2024-03-11T04:17:15.861Z,12.90
2024-03-11T04:19:49.294Z,12.77
2024-03-11T04:22:21.986Z,12.50
2024-03-11T04:24:54.614Z,12.93
2024-03-11T04:27:28.614Z,13.27
2024-03-11T04:30:02.663Z,12.33
2024-03-11T04:32:36.541Z,11.90
2024-03-11T04:35:09.539Z,12.17
2024-03-11T04:37:42.398Z,12.47
2024-03-11T04:40:15.066Z,12.80
2024-03-11T04:42:49.632Z,12.37
2024-03-11T04:45:23.199Z,12.80
2024-03-11T04:48:01.650Z,12.10
2024-03-11T04:50:35.820Z,12.97
2024-03-11T04:53:09.492Z,13.23
2024-03-11T04:55:42.167Z,11.67
2024-03-11T04:58:19.176Z,12.83
2024-03-11T05:00:55.128Z,13.37
2024-03-11T05:03:27.814Z,12.43
2024-03-11T05:06:04.783Z,12.03
2024-03-11T05:08:37.654Z,12.43
2024-03-11T05:11:10.728Z,12.17
2024-03-11T05:13:50.791Z,11.47
2024-03-11T05:16:23.786Z,12.00
2024-03-11T05:18:56.690Z,11.77
2024-03-11T05:21:29.529Z,11.63
2024-03-11T05:24:04.010Z,12.03
2024-03-11T05:26:37.065Z,12.27
2024-03-11T05:29:14.293Z,12.20
2024-03-11T05:31:47.515Z,12.10
2024-03-11T05:34:21.255Z,12.63
2024-03-11T05:36:54.143Z,12.50
2024-03-11T05:39:26.945Z,12.13
2024-03-11T05:41:59.648Z,12.57
2024-03-11T05:44:35.359Z,12.60
2024-03-11T05:47:08.365Z,12.50
2024-03-11T05:49:42.463Z,12.37
2024-03-11T05:52:15.296Z,13.00
2024-03-11T05:54:51.833Z,12.33
2024-03-11T05:57:26.776Z,12.83
2024-03-11T06:00:01.350Z,13.30
2024-03-11T06:02:34.233Z,12.60
2024-03-11T06:05:07.817Z,12.37
2024-03-11T06:07:40.740Z,12.83
2024-03-11T06:10:13.724Z,12.73
2024-03-11T06:12:47.238Z,12.07
2024-03-11T06:15:23.209Z,13.03
2024-03-11T06:17:56.316Z,12.30
2024-03-11T06:20:29.237Z,13.77
2024-03-11T06:23:04.090Z,12.33
2024-03-11T06:25:36.769Z,12.47
2024-03-11T06:28:10.542Z,13.50
2024-03-11T06:30:48.316Z,13.37
2024-03-11T06:33:22.713Z,12.37
2024-03-11T06:35:56.905Z,12.70
2024-03-11T06:38:30.511Z,13.00
2024-03-11T06:41:03.471Z,12.90
2024-03-11T06:43:36.302Z,13.37
2024-03-11T06:46:11.872Z,13.37
2024-03-11T06:48:45.121Z,13.00
2024-03-11T06:51:18.257Z,12.53
2024-03-11T06:53:51.222Z,13.03
2024-03-11T06:56:25.944Z,12.37
2024-03-11T06:58:59.639Z,13.10
2024-03-11T07:01:34.630Z,13.60
2024-03-11T07:04:07.641Z,12.53
2024-03-11T07:06:40.962Z,11.90
2024-03-11T07:09:16.487Z,12.17
2024-03-11T07:11:50.042Z,12.47
2024-03-11T07:14:23.618Z,13.20
2024-03-11T07:16:59.971Z,11.30
2024-03-11T07:19:34.431Z,13.80
2024-03-11T07:22:08.300Z,11.97
2024-03-11T07:24:41.655Z,12.77
2024-03-11T07:27:17.600Z,12.60
2024-03-11T07:29:50.599Z,13.33
2024-03-11T07:32:24.863Z,12.73
2024-03-11T07:34:59.067Z,13.33
2024-03-11T07:37:37.541Z,12.80
2024-03-11T07:40:12.685Z,13.10
2024-03-11T07:42:45.828Z,12.80
2024-03-11T07:45:18.940Z,13.00
2024-03-11T07:47:56.632Z,12.37
2024-03-11T07:50:30.150Z,12.50
2024-03-11T07:53:06.404Z,12.30
2024-03-11T07:55:39.435Z,12.90
2024-03-11T07:58:12.675Z,13.80
2024-03-11T08:00:48.327Z,13.60
2024-03-11T08:03:25.554Z,13.50
2024-03-11T08:06:01.745Z,12.43
2024-03-11T08:08:35.702Z,12.53
2024-03-11T08:11:09.544Z,12.87
2024-03-11T08:13:42.783Z,13.57
2024-03-11T08:16:15.647Z,12.97
2024-03-11T08:18:49.883Z,12.30
2024-03-11T08:21:24.437Z,12.83
2024-03-11T08:23:58.437Z,12.77
2024-03-11T08:26:31.821Z,12.00
2024-03-11T08:29:04.980Z,13.30
2024-03-11T08:31:38.029Z,13.87
2024-03-11T08:34:12.676Z,14.23
2024-03-11T08:36:45.386Z,12.40
2024-03-11T08:39:18.109Z,13.60
2024-03-11T08:41:55.094Z,12.57
2024-03-11T08:44:31.177Z,13.33
2024-03-11T08:47:07.391Z,13.13
2024-03-11T08:49:45.600Z,13.17
2024-03-11T08:52:21.338Z,13.63
2024-03-11T08:55:00.600Z,13.30
2024-03-11T08:57:33.926Z,12.90
2024-03-11T09:00:10.580Z,13.60
2024-03-11T09:02:46.239Z,13.80
2024-03-11T09:05:22.755Z,13.93
2024-03-11T09:07:58.061Z,13.87
2024-03-11T09:10:32.808Z,14.50
2024-03-11T09:13:09.362Z,13.90
2024-03-11T09:15:46.312Z,15.93
2024-03-11T09:18:23.148Z,16.33
2024-03-11T09:20:57.286Z,15.07
2024-03-11T09:23:32.660Z,16.13
2024-03-11T09:26:11.440Z,15.80
2024-03-11T09:28:45.407Z,18.27
2024-03-11T09:31:18.613Z,19.00
2024-03-11T09:33:51.863Z,19.47
2024-03-11T09:36:26.623Z,20.07
2024-03-11T09:38:59.644Z,19.03
2024-03-11T09:41:38.600Z,19.93
2024-03-11T09:44:17.093Z,19.73
2024-03-11T09:46:51.990Z,19.60
2024-03-11T09:49:25.524Z,22.67
2024-03-11T09:52:02.468Z,22.33
2024-03-11T09:54:35.549Z,21.77
2024-03-11T09:57:11.552Z,23.33
2024-03-11T09:59:51.184Z,24.40
2024-03-11T10:02:28.006Z,22.87
2024-03-11T10:05:00.805Z,27.20
2024-03-11T10:07:37.960Z,23.20
2024-03-11T10:10:26.057Z,21.40
2024-03-11T10:13:02.795Z,20.73
2024-03-11T10:15:35.978Z,23.07
2024-03-11T10:18:27.890Z,21.70
2024-03-11T10:21:01.039Z,21.60
2024-03-11T10:23:37.689Z,21.20
2024-03-11T10:26:18.343Z,22.40
2024-03-11T10:28:51.533Z,22.97
2024-03-11T10:31:25.390Z,22.50
2024-03-11T10:34:11.543Z,23.20
2024-03-11T10:36:50.150Z,23.97
2024-03-11T10:39:32.904Z,23.57
2024-03-11T10:42:13.528Z,22.47
2024-03-11T10:44:47.429Z,21.37
2024-03-11T10:47:23.555Z,20.50
2024-03-11T10:49:56.425Z,20.87
2024-03-11T10:52:32.007Z,19.07
2024-03-11T10:55:13.745Z,19.80
2024-03-11T10:57:51.697Z,18.90
2024-03-11T11:00:25.617Z,19.93
2024-03-11T11:03:08.984Z,20.37
2024-03-11T11:05:48.838Z,19.20
2024-03-11T11:08:31.618Z,19.63
2024-03-11T11:14:34.854Z,25.07
2024-03-11T11:17:10.633Z,21.03
2024-03-11T11:19:53.824Z,19.57
2024-03-11T11:22:28.512Z,19.60
2024-03-11T11:25:01.807Z,18.70
2024-03-11T11:27:38.923Z,21.23
2024-03-11T11:37:20.868Z,18.33
2024-03-11T11:39:55.318Z,19.17
2024-03-11T11:42:34.833Z,18.87
2024-03-11T11:45:12.828Z,19.23
2024-03-11T11:47:46.971Z,18.73
2024-03-11T11:50:39.631Z,18.33
2024-03-11T11:53:13.298Z,18.30
2024-03-11T11:55:51.648Z,18.03
2024-03-11T11:58:24.615Z,17.53
2024-03-11T12:01:02.899Z,17.70
2024-03-11T12:03:37.501Z,17.27
2024-03-11T12:06:19.611Z,16.40
2024-03-11T12:08:55.056Z,17.97
2024-03-11T12:11:28.278Z,19.50
2024-03-11T12:14:01.588Z,16.90
2024-03-11T12:16:47.337Z,20.20
2024-03-11T12:19:21.811Z,16.13
2024-03-11T12:21:55.097Z,17.87
2024-03-11T12:24:28.230Z,16.63
2024-03-11T12:27:00.992Z,14.83
2024-03-11T12:29:33.726Z,14.27
2024-03-11T12:32:12.522Z,14.43
2024-03-11T12:34:45.557Z,14.10
2024-03-11T12:37:19.082Z,12.47
2024-03-11T12:39:54.567Z,13.07
2024-03-11T12:42:30.894Z,12.20
2024-03-11T12:45:04.931Z,12.43
2024-03-11T12:47:38.989Z,12.30
2024-03-11T12:50:13.165Z,14.50
2024-03-11T12:52:47.210Z,14.40
2024-03-11T12:55:24.675Z,12.73
2024-03-11T12:58:03.887Z,12.53
2024-03-11T13:00:36.604Z,12.33
2024-03-11T13:03:13.216Z,13.07
2024-03-11T13:05:56.414Z,12.97
2024-03-11T13:08:31.090Z,11.90
2024-03-11T13:11:06.079Z,13.03
2024-03-11T13:13:39.184Z,11.67
2024-03-11T13:16:17.875Z,11.67
2024-03-11T13:18:56.445Z,11.33
2024-03-11T13:21:31.147Z,12.33
2024-03-11T13:24:04.405Z,9.77
2024-03-11T13:26:39.568Z,10.83
2024-03-11T13:29:13.364Z,9.57
2024-03-11T13:31:46.177Z,10.03
2024-03-11T13:34:23.031Z,10.10
2024-03-11T13:36:55.814Z,10.97
2024-03-11T13:39:38.148Z,9.43
2024-03-11T13:42:13.936Z,9.03
2024-03-11T13:44:49.232Z,10.43
2024-03-11T13:47:22.091Z,8.90
2024-03-11T13:49:59.092Z,8.50
2024-03-11T13:52:32.045Z,8.10
2024-03-11T13:55:05.462Z,7.73
2024-03-11T13:57:38.243Z,9.10
2024-03-11T14:00:18.816Z,12.30
2024-03-11T14:02:52.466Z,7.00
2024-03-11T14:05:27.940Z,6.80
2024-03-11T14:08:00.672Z,6.57
2024-03-11T14:10:33.532Z,5.63
2024-03-11T14:13:06.533Z,5.80
2024-03-11T14:15:39.307Z,5.17
2024-03-11T14:18:12.569Z,5.03
2024-03-11T14:20:49.260Z,4.40
2024-03-11T14:23:22.994Z,4.40
2024-03-11T14:25:55.901Z,5.07
2024-03-11T14:28:29.420Z,5.20
2024-03-11T14:31:04.108Z,5.00
2024-03-11T14:33:37.558Z,6.20
2024-03-11T14:36:12.040Z,4.10
2024-03-11T14:38:44.723Z,2.87
2024-03-11T14:41:17.323Z,3.13
2024-03-11T14:43:51.737Z,3.23
2024-03-11T14:46:26.520Z,2.97
2024-03-11T14:49:00.204Z,2.70
2024-03-11T14:51:36.164Z,2.90
2024-03-11T14:54:16.503Z,2.70
2024-03-11T14:56:49.948Z,2.73
2024-03-11T14:59:23.923Z,2.93
2024-03-11T15:01:57.361Z,2.47
2024-03-11T15:04:32.364Z,2.30
2024-03-11T15:07:07.524Z,4.23
2024-03-11T15:09:43.452Z,3.87
2024-03-11T15:12:16.787Z,2.30
2024-03-11T15:14:49.566Z,2.80
2024-03-11T15:17:24.404Z,2.30
2024-03-11T15:19:57.998Z,2.60
2024-03-11T15:22:33.036Z,2.03
2024-03-11T15:25:07.610Z,2.40
2024-03-11T15:27:46.724Z,3.00
2024-03-11T15:30:22.118Z,2.73
2024-03-11T15:32:54.871Z,2.50
2024-03-11T15:35:28.148Z,2.67
2024-03-11T15:38:02.266Z,2.50
2024-03-11T15:40:35.795Z,3.30
2024-03-11T15:43:08.594Z,2.20
2024-03-11T15:45:41.342Z,2.70
2024-03-11T15:48:19.475Z,3.30
2024-03-11T15:50:54.998Z,2.70
2024-03-11T15:53:32.097Z,2.43
2024-03-11T15:56:05.107Z,2.40
2024-03-11T15:58:38.285Z,2.40
2024-03-11T16:01:15.316Z,2.50
2024-03-11T16:03:49.141Z,2.73
2024-03-11T16:06:22.556Z,3.33
2024-03-11T16:08:58.510Z,3.07
2024-03-11T16:11:31.298Z,2.30
2024-03-11T16:14:03.496Z,5.27
2024-03-11T16:16:36.221Z,2.77
2024-03-11T16:19:08.038Z,3.40
2024-03-11T16:21:42.389Z,2.83
2024-03-11T16:24:16.255Z,2.40
2024-03-11T16:26:52.051Z,2.67
2024-03-11T16:29:24.324Z,4.00
2024-03-11T16:31:57.194Z,3.27
2024-03-11T16:34:31.594Z,3.77
2024-03-11T16:37:08.440Z,3.17
2024-03-11T16:39:46.138Z,3.60
2024-03-11T16:42:20.824Z,3.60
2024-03-11T16:44:52.893Z,4.10
2024-03-11T16:47:30.086Z,3.67
2024-03-11T16:50:02.222Z,5.20
2024-03-11T16:52:40.504Z,7.33
2024-03-11T16:55:15.217Z,5.87
2024-03-11T16:57:47.979Z,5.80
2024-03-11T17:00:21.853Z,4.20
2024-03-11T17:02:55.051Z,8.37
2024-03-11T17:05:28.660Z,5.37
2024-03-11T17:08:03.644Z,5.37
2024-03-11T17:10:40.463Z,10.53
2024-03-11T17:13:15.810Z,13.87
2024-03-11T17:15:50.536Z,12.90
2024-03-11T17:18:23.313Z,10.47
2024-03-11T17:20:56.768Z,3.73
2024-03-11T17:23:31.007Z,3.30
2024-03-11T17:26:09.522Z,4.83
2024-03-11T17:28:41.504Z,3.80
2024-03-11T17:31:14.443Z,4.27
2024-03-11T17:33:48.713Z,3.87
2024-03-11T17:36:22.498Z,5.07
2024-03-11T17:38:57.280Z,5.93
2024-03-11T17:41:30.373Z,9.23
2024-03-11T17:44:04.144Z,6.13
2024-03-11T17:46:36.392Z,6.67
2024-03-11T17:49:12.271Z,5.70
2024-03-11T17:51:43.978Z,6.17
2024-03-11T17:54:18.139Z,6.47
2024-03-11T17:56:51.176Z,8.37
2024-03-11T17:59:24.319Z,7.70
2024-03-11T18:01:56.009Z,7.20
2024-03-11T18:04:28.706Z,7.30
2024-03-11T18:07:00.447Z,7.13
2024-03-11T18:09:33.820Z,8.93
2024-03-11T18:12:08.069Z,8.30
2024-03-11T18:14:39.807Z,8.07
2024-03-11T18:17:14.477Z,7.50
2024-03-11T18:19:46.882Z,7.70
2024-03-11T18:22:20.078Z,6.73
2024-03-11T18:24:51.886Z,7.30
2024-03-11T18:27:25.887Z,6.93
2024-03-11T18:29:57.737Z,7.00
2024-03-11T18:32:30.413Z,7.33
2024-03-11T18:35:03.220Z,6.27
2024-03-11T18:37:36.293Z,7.43
2024-03-11T18:40:10.406Z,6.90
2024-03-11T18:42:46.271Z,7.30
2024-03-11T18:45:19.356Z,7.07
2024-03-11T18:47:52.351Z,8.20
2024-03-11T18:50:25.782Z,18.57
2024-03-11T18:53:01.932Z,25.97
2024-03-11T18:55:37.047Z,31.40
2024-03-11T18:58:12.067Z,48.37
2024-03-11T19:00:45.471Z,26.37
2024-03-11T19:03:18.363Z,20.20
2024-03-11T19:05:51.831Z,20.77
2024-03-11T19:08:24.447Z,19.13
2024-03-11T19:10:57.644Z,14.70
2024-03-11T19:13:32.155Z,15.03
2024-03-11T19:16:06.772Z,13.53
2024-03-11T19:18:40.034Z,14.13
2024-03-11T19:21:15.588Z,12.77
2024-03-11T19:23:49.608Z,14.40
2024-03-11T19:26:23.705Z,16.60
2024-03-11T19:28:58.673Z,19.97
2024-03-11T19:31:34.490Z,28.03
2024-03-11T19:34:08.850Z,43.33
2024-03-11T19:36:47.813Z,14.23
2024-03-11T19:39:26.462Z,23.20
2024-03-11T19:42:05.701Z,22.97
2024-03-11T19:44:45.557Z,29.37
2024-03-11T19:47:42.695Z,12.77
2024-03-11T19:50:34.333Z,12.17
2024-03-11T19:53:28.068Z,15.37
2024-03-11T19:56:31.277Z,11.90
2024-03-11T19:59:31.419Z,16.30
2024-03-11T20:02:22.889Z,21.10
2024-03-11T20:05:13.633Z,16.33
2024-03-11T20:08:03.668Z,11.63
2024-03-11T20:11:13.163Z,12.43
2024-03-11T20:13:58.216Z,13.70
2024-03-11T20:16:49.135Z,12.57
2024-03-11T20:19:41.922Z,12.73
2024-03-11T20:22:44.066Z,12.17
2024-03-11T20:25:34.483Z,12.03
2024-03-11T20:28:11.951Z,12.57
2024-03-11T20:30:52.726Z,12.93
2024-03-11T20:33:27.081Z,12.90
2024-03-11T20:36:01.551Z,11.27
2024-03-11T20:38:34.773Z,11.13
2024-03-11T20:41:08.574Z,10.83
2024-03-11T20:43:41.977Z,12.77
2024-03-11T20:46:15.541Z,13.33
2024-03-11T20:48:48.278Z,12.77
2024-03-11T20:51:25.378Z,13.47
2024-03-11T20:53:58.220Z,14.00
2024-03-11T20:56:30.812Z,12.03
2024-03-11T20:59:03.729Z,13.00
2024-03-11T21:01:37.001Z,12.30
2024-03-11T21:04:15.498Z,12.63
2024-03-11T21:06:49.639Z,12.60
2024-03-11T21:09:23.691Z,12.20
2024-03-11T21:11:57.106Z,12.50
2024-03-11T21:14:30.106Z,11.93
2024-03-11T21:17:07.346Z,11.93
2024-03-11T21:19:49.919Z,11.37
2024-03-11T21:22:31.052Z,11.60
2024-03-11T21:25:18.952Z,15.80
2024-03-11T21:27:51.738Z,12.23
2024-03-11T21:30:25.178Z,21.50
2024-03-11T21:32:58.083Z,12.33
2024-03-11T21:35:33.845Z,11.87
2024-03-11T21:38:13.792Z,12.27
2024-03-11T21:40:54.958Z,10.73
2024-03-11T21:43:27.909Z,11.33
2024-03-11T21:46:00.744Z,11.57
2024-03-11T21:48:33.404Z,11.97
2024-03-11T21:51:06.238Z,11.23
2024-03-11T21:53:40.320Z,11.37
2024-03-11T21:56:12.922Z,11.63
2024-03-11T21:58:45.743Z,10.87
2024-03-11T22:01:18.506Z,11.03
2024-03-11T22:03:51.236Z,11.03
2024-03-11T22:06:24.084Z,11.33
2024-03-11T22:09:00.654Z,12.17
2024-03-11T22:11:33.419Z,11.00
2024-03-11T22:14:08.207Z,12.13
2024-03-11T22:16:41.025Z,11.67
2024-03-11T22:19:13.823Z,12.37
2024-03-11T22:21:48.066Z,11.70
2024-03-11T22:24:22.840Z,10.03
2024-03-11T22:26:55.539Z,10.50
2024-03-11T22:29:29.664Z,10.43
2024-03-11T22:32:02.368Z,11.07
2024-03-11T22:34:34.987Z,11.37
2024-03-11T22:37:07.781Z,11.00
2024-03-11T22:39:42.072Z,11.23
2024-03-11T22:42:15.615Z,11.90
2024-03-11T22:44:49.895Z,11.90
2024-03-11T22:47:22.762Z,11.53
2024-03-11T22:49:55.701Z,11.77
2024-03-11T22:52:28.346Z,11.50
2024-03-11T22:55:02.861Z,11.70
2024-03-11T22:57:36.072Z,11.67
2024-03-11T23:00:39.024Z,11.77
2024-03-11T23:03:12.540Z,11.53
2024-03-11T23:05:45.158Z,10.97
2024-03-11T23:08:22.098Z,12.23
2024-03-11T23:10:56.826Z,11.63
2024-03-11T23:13:29.634Z,12.37
2024-03-11T23:16:02.342Z,12.50
2024-03-11T23:18:34.958Z,12.13
2024-03-11T23:21:07.629Z,11.53
2024-03-11T23:23:41.344Z,11.40
2024-03-11T23:26:18.132Z,10.67
2024-03-11T23:28:51.191Z,11.80
2024-03-11T23:31:25.423Z,11.43
2024-03-11T23:33:59.054Z,10.87
2024-03-11T23:36:31.854Z,12.37
2024-03-11T23:39:04.971Z,11.80
2024-03-11T23:41:38.976Z,11.97
2024-03-11T23:44:12.941Z,12.23
2024-03-11T23:46:47.421Z,11.73
2024-03-11T23:49:20.553Z,11.07
2024-03-11T23:51:53.607Z,12.73
2024-03-11T23:54:26.698Z,11.60
2024-03-11T23:57:01.410Z,12.03
2024-03-11T23:59:34.915Z,12.23
